sensor_id;sensor_type;location;lat;lon;timestamp;pressure;altitude;pressure_sealevel;temperature;humidity
66887;BME280;67239;51.680;5.976;2023-07-24T00:01:59;100332.69;;;18.03;100.00
66887;BME280;67239;51.680;5.976;2023-07-24T00:04:26;100345.00;;;18.06;100.00
66887;BME280;67239;51.680;5.976;2023-07-24T00:06:53;100335.28;;;18.05;100.00
66887;BME280;67239;51.680;5.976;2023-07-24T00:09:21;100337.06;;;18.04;100.00
66887;BME280;67239;51.680;5.976;2023-07-24T00:11:48;100344.13;;;18.05;100.00
66887;BME280;67239;51.680;5.976;2023-07-24T00:14:16;100337.00;;;18.06;100.00
66887;BME280;67239;51.680;5.976;2023-07-24T00:16:43;100329.81;;;18.06;100.00
66887;BME280;67239;51.680;5.976;2023-07-24T00:19:11;100330.47;;;18.10;100.00
66887;BME280;67239;51.680;5.976;2023-07-24T00:21:38;100323.34;;;18.10;100.00
66887;BME280;67239;51.680;5.976;2023-07-24T00:24:05;100326.00;;;18.10;100.00
66887;BME280;67239;51.680;5.976;2023-07-24T00:26:32;100336.75;;;18.09;100.00
66887;BME280;67239;51.680;5.976;2023-07-24T00:28:59;100324.50;;;18.06;100.00
66887;BME280;67239;51.680;5.976;2023-07-24T00:31:27;100323.66;;;18.06;100.00
66887;BME280;67239;51.680;5.976;2023-07-24T00:33:54;100315.88;;;18.03;100.00
66887;BME280;67239;51.680;5.976;2023-07-24T00:36:21;100311.59;;;18.00;100.00
66887;BME280;67239;51.680;5.976;2023-07-24T00:38:48;100308.28;;;17.96;100.00
66887;BME280;67239;51.680;5.976;2023-07-24T00:41:15;100305.91;;;17.92;100.00
66887;BME280;67239;51.680;5.976;2023-07-24T00:43:42;100303.34;;;17.90;100.00
66887;BME280;67239;51.680;5.976;2023-07-24T00:46:11;100305.25;;;17.88;100.00
66887;BME280;67239;51.680;5.976;2023-07-24T00:48:38;100290.22;;;17.87;100.00
66887;BME280;67239;51.680;5.976;2023-07-24T00:51:07;100294.72;;;17.87;100.00
66887;BME280;67239;51.680;5.976;2023-07-24T00:53:34;100297.50;;;17.85;100.00
66887;BME280;67239;51.680;5.976;2023-07-24T00:56:02;100309.13;;;17.84;100.00
66887;BME280;67239;51.680;5.976;2023-07-24T00:58:30;100294.16;;;17.81;100.00
66887;BME280;67239;51.680;5.976;2023-07-24T01:00:57;100290.66;;;17.81;100.00
66887;BME280;67239;51.680;5.976;2023-07-24T01:03:32;100289.69;;;17.82;100.00
66887;BME280;67239;51.680;5.976;2023-07-24T01:06:03;100283.63;;;17.80;100.00
66887;BME280;67239;51.680;5.976;2023-07-24T01:08:30;100281.91;;;17.79;100.00
66887;BME280;67239;51.680;5.976;2023-07-24T01:11:03;100280.94;;;17.80;100.00
66887;BME280;67239;51.680;5.976;2023-07-24T01:13:43;100281.91;;;17.79;100.00
66887;BME280;67239;51.680;5.976;2023-07-24T01:16:22;100273.91;;;17.79;100.00
66887;BME280;67239;51.680;5.976;2023-07-24T01:18:58;100272.00;;;17.81;100.00
66887;BME280;67239;51.680;5.976;2023-07-24T01:21:38;100261.22;;;17.82;100.00
66887;BME280;67239;51.680;5.976;2023-07-24T01:24:35;100267.50;;;17.81;100.00
66887;BME280;67239;51.680;5.976;2023-07-24T01:27:19;100263.03;;;17.82;100.00
66887;BME280;67239;51.680;5.976;2023-07-24T01:29:47;100257.72;;;17.82;100.00
66887;BME280;67239;51.680;5.976;2023-07-24T01:32:15;100255.88;;;17.82;100.00
66887;BME280;67239;51.680;5.976;2023-07-24T01:34:42;100246.94;;;17.83;100.00
66887;BME280;67239;51.680;5.976;2023-07-24T01:37:10;100248.75;;;17.83;100.00
66887;BME280;67239;51.680;5.976;2023-07-24T01:39:43;100246.94;;;17.83;100.00
66887;BME280;67239;51.680;5.976;2023-07-24T01:42:12;100239.81;;;17.84;100.00
66887;BME280;67239;51.680;5.976;2023-07-24T01:44:40;100237.13;;;17.84;100.00
66887;BME280;67239;51.680;5.976;2023-07-24T01:47:09;100238.84;;;17.85;100.00
66887;BME280;67239;51.680;5.976;2023-07-24T01:49:37;100232.63;;;17.84;100.00
66887;BME280;67239;51.680;5.976;2023-07-24T01:52:04;100230.84;;;17.85;100.00
66887;BME280;67239;51.680;5.976;2023-07-24T01:54:31;100229.22;;;17.82;100.00
66887;BME280;67239;51.680;5.976;2023-07-24T01:56:58;100226.69;;;17.81;100.00
66887;BME280;67239;51.680;5.976;2023-07-24T01:59:25;100213.56;;;17.78;100.00
66887;BME280;67239;51.680;5.976;2023-07-24T02:01:53;100218.13;;;17.76;100.00
66887;BME280;67239;51.680;5.976;2023-07-24T02:04:20;100223.47;;;17.76;100.00
66887;BME280;67239;51.680;5.976;2023-07-24T02:06:49;100221.78;;;17.75;100.00
66887;BME280;67239;51.680;5.976;2023-07-24T02:09:19;100219.97;;;17.75;100.00
66887;BME280;67239;51.680;5.976;2023-07-24T02:11:47;100220.81;;;17.76;100.00
66887;BME280;67239;51.680;5.976;2023-07-24T02:14:18;100215.59;;;17.74;100.00
66887;BME280;67239;51.680;5.976;2023-07-24T02:16:45;100205.88;;;17.73;100.00
66887;BME280;67239;51.680;5.976;2023-07-24T02:19:12;100206.63;;;17.75;100.00
66887;BME280;67239;51.680;5.976;2023-07-24T02:21:39;100202.13;;;17.76;100.00
66887;BME280;67239;51.680;5.976;2023-07-24T02:24:07;100200.22;;;17.78;100.00
66887;BME280;67239;51.680;5.976;2023-07-24T02:26:34;100204.59;;;17.79;100.00
66887;BME280;67239;51.680;5.976;2023-07-24T02:29:02;100206.31;;;17.80;100.00
66887;BME280;67239;51.680;5.976;2023-07-24T02:31:29;100198.31;;;17.80;100.00
66887;BME280;67239;51.680;5.976;2023-07-24T02:33:56;100188.59;;;17.79;100.00
66887;BME280;67239;51.680;5.976;2023-07-24T02:36:23;100187.03;;;17.76;100.00
66887;BME280;67239;51.680;5.976;2023-07-24T02:38:50;100188.09;;;17.74;100.00
66887;BME280;67239;51.680;5.976;2023-07-24T02:41:18;100173.16;;;17.71;100.00
66887;BME280;67239;51.680;5.976;2023-07-24T02:43:45;100176.06;;;17.68;100.00
66887;BME280;67239;51.680;5.976;2023-07-24T02:46:12;100180.63;;;17.66;100.00
66887;BME280;67239;51.680;5.976;2023-07-24T02:48:39;100185.09;;;17.65;100.00
66887;BME280;67239;51.680;5.976;2023-07-24T02:51:06;100185.84;;;17.67;100.00
66887;BME280;67239;51.680;5.976;2023-07-24T02:53:33;100187.66;;;17.67;100.00
66887;BME280;67239;51.680;5.976;2023-07-24T02:56:01;100194.72;;;17.68;100.00
66887;BME280;67239;51.680;5.976;2023-07-24T02:58:29;100192.03;;;17.68;100.00
66887;BME280;67239;51.680;5.976;2023-07-24T03:01:06;100194.72;;;17.68;100.00
66887;BME280;67239;51.680;5.976;2023-07-24T03:03:34;100187.75;;;17.65;100.00
66887;BME280;67239;51.680;5.976;2023-07-24T03:06:02;100186.81;;;17.66;100.00
66887;BME280;67239;51.680;5.976;2023-07-24T03:08:29;100174.69;;;17.62;100.00
66887;BME280;67239;51.680;5.976;2023-07-24T03:10:56;100175.63;;;17.61;100.00
66887;BME280;67239;51.680;5.976;2023-07-24T03:13:23;100174.13;;;17.57;100.00
66887;BME280;67239;51.680;5.976;2023-07-24T03:15:55;100176.03;;;17.55;100.00
66887;BME280;67239;51.680;5.976;2023-07-24T03:18:23;100179.56;;;17.56;100.00
66887;BME280;67239;51.680;5.976;2023-07-24T03:20:51;100182.25;;;17.56;100.00
66887;BME280;67239;51.680;5.976;2023-07-24T03:23:18;100185.03;;;17.54;100.00
66887;BME280;67239;51.680;5.976;2023-07-24T03:25:46;100181.59;;;17.52;100.00
66887;BME280;67239;51.680;5.976;2023-07-24T03:28:14;100179.91;;;17.51;100.00
66887;BME280;67239;51.680;5.976;2023-07-24T03:30:42;100175.84;;;17.45;100.00
66887;BME280;67239;51.680;5.976;2023-07-24T03:33:10;100183.22;;;17.42;100.00
66887;BME280;67239;51.680;5.976;2023-07-24T03:35:39;100179.78;;;17.39;100.00
66887;BME280;67239;51.680;5.976;2023-07-24T03:38:06;100171.91;;;17.38;100.00
66887;BME280;67239;51.680;5.976;2023-07-24T03:40:33;100173.06;;;17.34;100.00
66887;BME280;67239;51.680;5.976;2023-07-24T03:43:00;100172.44;;;17.30;100.00
66887;BME280;67239;51.680;5.976;2023-07-24T03:45:27;100165.53;;;17.28;100.00
66887;BME280;67239;51.680;5.976;2023-07-24T03:47:54;100146.25;;;17.24;100.00
66887;BME280;67239;51.680;5.976;2023-07-24T03:50:21;100145.56;;;17.20;100.00
66887;BME280;67239;51.680;5.976;2023-07-24T03:52:49;100147.59;;;17.17;100.00
66887;BME280;67239;51.680;5.976;2023-07-24T03:55:17;100138.97;;;17.13;100.00
66887;BME280;67239;51.680;5.976;2023-07-24T03:57:44;100149.75;;;17.12;100.00
66887;BME280;67239;51.680;5.976;2023-07-24T04:00:11;100142.72;;;17.11;100.00
66887;BME280;67239;51.680;5.976;2023-07-24T04:02:39;100145.50;;;17.09;100.00
66887;BME280;67239;51.680;5.976;2023-07-24T04:05:06;100143.66;;;17.10;100.00
66887;BME280;67239;51.680;5.976;2023-07-24T04:07:36;100146.34;;;17.10;100.00
66887;BME280;67239;51.680;5.976;2023-07-24T04:10:04;100149.75;;;17.12;100.00
66887;BME280;67239;51.680;5.976;2023-07-24T04:12:32;100146.13;;;17.13;100.00
66887;BME280;67239;51.680;5.976;2023-07-24T04:14:59;100154.13;;;17.13;100.00
66887;BME280;67239;51.680;5.976;2023-07-24T04:17:26;100147.16;;;17.10;100.00
66887;BME280;67239;51.680;5.976;2023-07-24T04:19:53;100148.16;;;17.09;100.00
66887;BME280;67239;51.680;5.976;2023-07-24T04:22:20;100151.66;;;17.10;100.00
66887;BME280;67239;51.680;5.976;2023-07-24T04:24:47;100158.81;;;17.09;100.00
66887;BME280;67239;51.680;5.976;2023-07-24T04:27:14;100159.66;;;17.10;100.00
66887;BME280;67239;51.680;5.976;2023-07-24T04:29:49;100171.25;;;17.08;100.00
66887;BME280;67239;51.680;5.976;2023-07-24T04:32:16;100179.44;;;17.05;100.00
66887;BME280;67239;51.680;5.976;2023-07-24T04:34:45;100177.53;;;16.95;100.00
66887;BME280;67239;51.680;5.976;2023-07-24T04:37:12;100176.28;;;16.86;100.00
66887;BME280;67239;51.680;5.976;2023-07-24T04:39:40;100181.47;;;16.74;100.00
66887;BME280;67239;51.680;5.976;2023-07-24T04:42:07;100189.75;;;16.70;100.00
66887;BME280;67239;51.680;5.976;2023-07-24T04:44:34;100189.13;;;16.66;100.00
66887;BME280;67239;51.680;5.976;2023-07-24T04:47:07;100199.22;;;16.61;100.00
66887;BME280;67239;51.680;5.976;2023-07-24T04:49:34;100197.53;;;16.60;100.00
66887;BME280;67239;51.680;5.976;2023-07-24T04:52:01;100190.59;;;16.57;100.00
66887;BME280;67239;51.680;5.976;2023-07-24T04:54:28;100176.53;;;16.55;100.00
66887;BME280;67239;51.680;5.976;2023-07-24T04:56:56;100176.84;;;16.51;100.00
66887;BME280;67239;51.680;5.976;2023-07-24T04:59:23;100174.50;;;16.46;100.00
66887;BME280;67239;51.680;5.976;2023-07-24T05:01:50;100171.06;;;16.44;100.00
66887;BME280;67239;51.680;5.976;2023-07-24T05:04:18;100181.13;;;16.39;100.00
66887;BME280;67239;51.680;5.976;2023-07-24T05:06:45;100188.69;;;16.32;100.00
66887;BME280;67239;51.680;5.976;2023-07-24T05:09:12;100192.38;;;16.29;100.00
66887;BME280;67239;51.680;5.976;2023-07-24T05:11:40;100186.97;;;16.31;100.00
66887;BME280;67239;51.680;5.976;2023-07-24T05:14:08;100188.78;;;16.30;100.00
66887;BME280;67239;51.680;5.976;2023-07-24T05:16:35;100182.63;;;16.30;100.00
66887;BME280;67239;51.680;5.976;2023-07-24T05:19:02;100191.53;;;16.29;100.00
66887;BME280;67239;51.680;5.976;2023-07-24T05:21:30;100180.78;;;16.30;100.00
66887;BME280;67239;51.680;5.976;2023-07-24T05:23:57;100178.13;;;16.30;100.00
66887;BME280;67239;51.680;5.976;2023-07-24T05:26:24;100192.19;;;16.33;100.00
66887;BME280;67239;51.680;5.976;2023-07-24T05:28:51;100196.44;;;16.35;100.00
66887;BME280;67239;51.680;5.976;2023-07-24T05:31:19;100207.75;;;16.39;100.00
66887;BME280;67239;51.680;5.976;2023-07-24T05:33:46;100194.13;;;16.43;100.00
66887;BME280;67239;51.680;5.976;2023-07-24T05:36:14;100193.09;;;16.46;100.00
66887;BME280;67239;51.680;5.976;2023-07-24T05:38:41;100200.22;;;16.45;100.00
66887;BME280;67239;51.680;5.976;2023-07-24T05:41:08;100188.63;;;16.46;100.00
66887;BME280;67239;51.680;5.976;2023-07-24T05:43:35;100192.88;;;16.49;100.00
66887;BME280;67239;51.680;5.976;2023-07-24T05:46:02;100198.97;;;16.51;100.00
66887;BME280;67239;51.680;5.976;2023-07-24T05:48:29;100207.72;;;16.53;100.00
66887;BME280;67239;51.680;5.976;2023-07-24T05:50:56;100216.34;;;16.57;100.00
66887;BME280;67239;51.680;5.976;2023-07-24T05:53:23;100219.75;;;16.59;100.00
66887;BME280;67239;51.680;5.976;2023-07-24T05:56:01;100213.28;;;16.63;100.00
66887;BME280;67239;51.680;5.976;2023-07-24T05:58:28;100210.53;;;16.65;100.00
66887;BME280;67239;51.680;5.976;2023-07-24T06:00:57;100205.09;;;16.66;100.00
66887;BME280;67239;51.680;5.976;2023-07-24T06:03:25;100202.22;;;16.69;100.00
66887;BME280;67239;51.680;5.976;2023-07-24T06:05:54;100204.69;;;16.72;100.00
66887;BME280;67239;51.680;5.976;2023-07-24T06:08:22;100205.34;;;16.76;100.00
66887;BME280;67239;51.680;5.976;2023-07-24T06:10:50;100206.09;;;16.78;100.00
66887;BME280;67239;51.680;5.976;2023-07-24T06:13:18;100207.59;;;16.82;100.00
66887;BME280;67239;51.680;5.976;2023-07-24T06:15:49;100204.31;;;16.91;100.00
66887;BME280;67239;51.680;5.976;2023-07-24T06:18:17;100201.94;;;17.01;100.00
66887;BME280;67239;51.680;5.976;2023-07-24T06:20:44;100203.00;;;17.12;100.00
66887;BME280;67239;51.680;5.976;2023-07-24T06:23:11;100210.38;;;17.21;100.00
66887;BME280;67239;51.680;5.976;2023-07-24T06:25:39;100214.75;;;17.22;100.00
66887;BME280;67239;51.680;5.976;2023-07-24T06:28:06;100208.53;;;17.21;100.00
66887;BME280;67239;51.680;5.976;2023-07-24T06:30:33;100208.22;;;17.26;100.00
66887;BME280;67239;51.680;5.976;2023-07-24T06:33:00;100210.38;;;17.34;100.00
66887;BME280;67239;51.680;5.976;2023-07-24T06:35:27;100218.91;;;17.39;100.00
66887;BME280;67239;51.680;5.976;2023-07-24T06:37:54;100211.66;;;17.41;100.00
66887;BME280;67239;51.680;5.976;2023-07-24T06:40:21;100209.66;;;17.45;100.00
66887;BME280;67239;51.680;5.976;2023-07-24T06:42:48;100216.56;;;17.47;100.00
66887;BME280;67239;51.680;5.976;2023-07-24T06:45:16;100219.88;;;17.51;100.00
66887;BME280;67239;51.680;5.976;2023-07-24T06:47:43;100223.38;;;17.51;100.00
66887;BME280;67239;51.680;5.976;2023-07-24T06:50:11;100217.72;;;17.56;100.00
66887;BME280;67239;51.680;5.976;2023-07-24T06:52:38;100217.00;;;17.67;100.00
66887;BME280;67239;51.680;5.976;2023-07-24T06:55:05;100217.94;;;17.79;100.00
66887;BME280;67239;51.680;5.976;2023-07-24T06:57:34;100219.31;;;17.97;100.00
66887;BME280;67239;51.680;5.976;2023-07-24T07:00:01;100219.53;;;18.07;100.00
66887;BME280;67239;51.680;5.976;2023-07-24T07:02:29;100217.81;;;18.06;100.00
66887;BME280;67239;51.680;5.976;2023-07-24T07:04:56;100227.28;;;18.23;100.00
66887;BME280;67239;51.680;5.976;2023-07-24T07:07:23;100234.78;;;18.42;100.00
66887;BME280;67239;51.680;5.976;2023-07-24T07:09:53;100226.97;;;18.52;100.00
66887;BME280;67239;51.680;5.976;2023-07-24T07:12:20;100229.63;;;18.52;100.00
66887;BME280;67239;51.680;5.976;2023-07-24T07:14:48;100225.38;;;18.50;100.00
66887;BME280;67239;51.680;5.976;2023-07-24T07:17:15;100229.84;;;18.49;100.00
66887;BME280;67239;51.680;5.976;2023-07-24T07:19:42;100226.78;;;18.42;100.00
66887;BME280;67239;51.680;5.976;2023-07-24T07:22:09;100228.81;;;18.39;100.00
66887;BME280;67239;51.680;5.976;2023-07-24T07:24:36;100218.59;;;18.33;100.00
66887;BME280;67239;51.680;5.976;2023-07-24T07:27:04;100219.44;;;18.33;100.00
66887;BME280;67239;51.680;5.976;2023-07-24T07:29:31;100222.34;;;18.30;100.00
66887;BME280;67239;51.680;5.976;2023-07-24T07:31:58;100222.16;;;18.20;100.00
66887;BME280;67239;51.680;5.976;2023-07-24T07:34:25;100221.75;;;18.13;100.00
66887;BME280;67239;51.680;5.976;2023-07-24T07:36:52;100235.69;;;18.17;100.00
66887;BME280;67239;51.680;5.976;2023-07-24T07:39:19;100236.69;;;18.16;100.00
66887;BME280;67239;51.680;5.976;2023-07-24T07:41:46;100232.00;;;18.20;100.00
66887;BME280;67239;51.680;5.976;2023-07-24T07:44:27;100228.03;;;18.25;100.00
66887;BME280;67239;51.680;5.976;2023-07-24T07:46:54;100229.41;;;18.31;100.00
66887;BME280;67239;51.680;5.976;2023-07-24T07:49:21;100227.56;;;18.31;100.00
66887;BME280;67239;51.680;5.976;2023-07-24T07:51:48;100227.69;;;18.30;100.00
66887;BME280;67239;51.680;5.976;2023-07-24T07:54:15;100217.31;;;18.38;100.00
66887;BME280;67239;51.680;5.976;2023-07-24T07:56:43;100221.84;;;18.49;100.00
66887;BME280;67239;51.680;5.976;2023-07-24T07:59:10;100222.25;;;18.56;100.00
66887;BME280;67239;51.680;5.976;2023-07-24T08:01:37;100219.34;;;18.59;100.00
66887;BME280;67239;51.680;5.976;2023-07-24T08:04:06;100223.72;;;18.60;100.00
66887;BME280;67239;51.680;5.976;2023-07-24T08:06:33;100219.22;;;18.60;100.00
66887;BME280;67239;51.680;5.976;2023-07-24T08:09:00;100212.31;;;18.58;100.00
66887;BME280;67239;51.680;5.976;2023-07-24T08:11:27;100209.44;;;18.61;100.00
66887;BME280;67239;51.680;5.976;2023-07-24T08:13:54;100214.63;;;18.62;100.00
66887;BME280;67239;51.680;5.976;2023-07-24T08:16:23;100215.59;;;18.61;100.00
66887;BME280;67239;51.680;5.976;2023-07-24T08:18:50;100201.41;;;18.61;100.00
66887;BME280;67239;51.680;5.976;2023-07-24T08:21:17;100212.25;;;18.71;100.00
66887;BME280;67239;51.680;5.976;2023-07-24T08:23:44;100211.06;;;18.99;100.00
66887;BME280;67239;51.680;5.976;2023-07-24T08:26:11;100211.13;;;19.33;98.67
66887;BME280;67239;51.680;5.976;2023-07-24T08:28:38;100208.63;;;19.66;98.14
66887;BME280;67239;51.680;5.976;2023-07-24T08:31:09;100210.34;;;19.90;94.39
66887;BME280;67239;51.680;5.976;2023-07-24T08:33:36;100199.66;;;19.90;91.91
66887;BME280;67239;51.680;5.976;2023-07-24T08:36:05;100211.34;;;19.89;91.58
66887;BME280;67239;51.680;5.976;2023-07-24T08:38:34;100211.97;;;19.92;90.71
66887;BME280;67239;51.680;5.976;2023-07-24T08:41:09;100216.06;;;20.19;89.75
66887;BME280;67239;51.680;5.976;2023-07-24T08:43:38;100222.72;;;20.36;90.47
66887;BME280;67239;51.680;5.976;2023-07-24T08:46:08;100213.78;;;20.47;91.40
66887;BME280;67239;51.680;5.976;2023-07-24T08:48:37;100204.75;;;20.59;88.35
66887;BME280;67239;51.680;5.976;2023-07-24T08:51:14;100198.81;;;20.56;87.62
66887;BME280;67239;51.680;5.976;2023-07-24T08:53:47;100201.88;;;20.51;87.30
66887;BME280;67239;51.680;5.976;2023-07-24T08:56:15;100192.69;;;20.65;85.89
66887;BME280;67239;51.680;5.976;2023-07-24T08:58:42;100190.97;;;20.97;83.81
66887;BME280;67239;51.680;5.976;2023-07-24T09:01:09;100199.56;;;21.12;78.93
66887;BME280;67239;51.680;5.976;2023-07-24T09:03:37;100193.34;;;21.11;81.38
66887;BME280;67239;51.680;5.976;2023-07-24T09:06:10;100187.06;;;21.22;83.11
66887;BME280;67239;51.680;5.976;2023-07-24T09:08:41;100185.84;;;21.05;78.10
66887;BME280;67239;51.680;5.976;2023-07-24T09:11:12;100190.59;;;20.80;78.33
66887;BME280;67239;51.680;5.976;2023-07-24T09:13:42;100181.38;;;20.61;81.73
66887;BME280;67239;51.680;5.976;2023-07-24T09:16:24;100201.16;;;20.38;81.08
66887;BME280;67239;51.680;5.976;2023-07-24T09:18:53;100194.28;;;20.12;79.96
66887;BME280;67239;51.680;5.976;2023-07-24T09:21:30;100191.91;;;19.98;82.83
66887;BME280;67239;51.680;5.976;2023-07-24T09:24:09;100186.28;;;20.01;83.05
66887;BME280;67239;51.680;5.976;2023-07-24T09:26:51;100187.13;;;20.01;84.91
66887;BME280;67239;51.680;5.976;2023-07-24T09:29:31;100190.66;;;20.02;85.46
66887;BME280;67239;51.680;5.976;2023-07-24T09:32:00;100179.94;;;20.02;85.49
66887;BME280;67239;51.680;5.976;2023-07-24T09:34:27;100181.41;;;20.06;85.71
66887;BME280;67239;51.680;5.976;2023-07-24T09:36:55;100181.25;;;20.19;82.04
66887;BME280;67239;51.680;5.976;2023-07-24T09:39:26;100170.84;;;20.48;78.28
66887;BME280;67239;51.680;5.976;2023-07-24T09:42:03;100163.00;;;20.68;76.92
66887;BME280;67239;51.680;5.976;2023-07-24T09:44:32;100153.69;;;20.84;76.32
66887;BME280;67239;51.680;5.976;2023-07-24T09:46:59;100149.63;;;20.89;76.93
66887;BME280;67239;51.680;5.976;2023-07-24T09:49:48;100150.16;;;21.04;77.04
66887;BME280;67239;51.680;5.976;2023-07-24T09:52:18;100136.50;;;21.07;77.89
66887;BME280;67239;51.680;5.976;2023-07-24T09:57:38;100127.63;;;21.69;79.68
66887;BME280;67239;51.680;5.976;2023-07-24T10:00:07;100129.22;;;21.71;78.53
66887;BME280;67239;51.680;5.976;2023-07-24T10:02:36;100123.41;;;21.66;76.78
66887;BME280;67239;51.680;5.976;2023-07-24T10:05:04;100105.03;;;21.62;77.60
66887;BME280;67239;51.680;5.976;2023-07-24T10:07:32;100105.81;;;21.52;76.54
66887;BME280;67239;51.680;5.976;2023-07-24T10:10:01;100110.16;;;21.44;74.29
66887;BME280;67239;51.680;5.976;2023-07-24T10:12:31;100098.91;;;21.19;73.60
66887;BME280;67239;51.680;5.976;2023-07-24T10:14:59;100099.50;;;21.01;75.18
66887;BME280;67239;51.680;5.976;2023-07-24T10:17:35;100102.69;;;20.85;76.06
66887;BME280;67239;51.680;5.976;2023-07-24T10:20:04;100102.22;;;20.69;76.88
66887;BME280;67239;51.680;5.976;2023-07-24T10:22:33;100119.84;;;20.50;77.38
66887;BME280;67239;51.680;5.976;2023-07-24T10:25:01;100112.38;;;20.32;79.54
66887;BME280;67239;51.680;5.976;2023-07-24T10:27:28;100117.63;;;20.23;79.48
66887;BME280;67239;51.680;5.976;2023-07-24T10:30:03;100116.84;;;20.11;79.54
66887;BME280;67239;51.680;5.976;2023-07-24T10:32:49;100110.78;;;19.97;80.32
66887;BME280;67239;51.680;5.976;2023-07-24T10:35:21;100131.13;;;19.89;81.04
66887;BME280;67239;51.680;5.976;2023-07-24T10:37:59;100139.13;;;19.77;81.05
66887;BME280;67239;51.680;5.976;2023-07-24T10:40:27;100134.75;;;19.65;82.13
66887;BME280;67239;51.680;5.976;2023-07-24T10:43:04;100143.50;;;19.55;82.22
66887;BME280;67239;51.680;5.976;2023-07-24T10:45:46;100160.50;;;19.43;83.28
66887;BME280;67239;51.680;5.976;2023-07-24T10:48:20;100155.00;;;19.33;83.88
66887;BME280;67239;51.680;5.976;2023-07-24T10:50:50;100155.38;;;19.29;84.56
66887;BME280;67239;51.680;5.976;2023-07-24T10:53:22;100155.88;;;19.22;83.85
66887;BME280;67239;51.680;5.976;2023-07-24T10:55:51;100161.44;;;19.19;84.39
66887;BME280;67239;51.680;5.976;2023-07-24T10:58:19;100159.03;;;19.16;84.94
66887;BME280;67239;51.680;5.976;2023-07-24T11:00:46;100165.56;;;19.12;84.66
66887;BME280;67239;51.680;5.976;2023-07-24T11:03:14;100172.00;;;19.09;85.50
66887;BME280;67239;51.680;5.976;2023-07-24T11:05:43;100170.28;;;19.08;85.28
66887;BME280;67239;51.680;5.976;2023-07-24T11:08:13;100169.69;;;19.05;84.45
66887;BME280;67239;51.680;5.976;2023-07-24T11:13:16;100177.53;;;18.95;84.25
66887;BME280;67239;51.680;5.976;2023-07-24T11:15:44;100176.78;;;18.93;85.25
66887;BME280;67239;51.680;5.976;2023-07-24T11:18:12;100167.72;;;18.96;86.72
66887;BME280;67239;51.680;5.976;2023-07-24T11:20:50;100173.09;;;19.07;87.71
66887;BME280;67239;51.680;5.976;2023-07-24T11:23:22;100169.34;;;19.21;87.85
66887;BME280;67239;51.680;5.976;2023-07-24T11:25:52;100162.56;;;19.39;87.45
66887;BME280;67239;51.680;5.976;2023-07-24T11:28:20;100156.59;;;19.59;87.31
66887;BME280;67239;51.680;5.976;2023-07-24T11:30:49;100153.94;;;19.81;87.93
66887;BME280;67239;51.680;5.976;2023-07-24T11:33:17;100143.22;;;20.04;85.19
66887;BME280;67239;51.680;5.976;2023-07-24T11:35:46;100126.91;;;20.19;83.26
66887;BME280;67239;51.680;5.976;2023-07-24T11:38:14;100128.56;;;20.31;82.74
66887;BME280;67239;51.680;5.976;2023-07-24T11:40:43;100116.19;;;20.51;82.15
66887;BME280;67239;51.680;5.976;2023-07-24T11:43:20;100122.25;;;20.86;83.56
66887;BME280;67239;51.680;5.976;2023-07-24T11:45:52;100126.44;;;21.21;83.05
66887;BME280;67239;51.680;5.976;2023-07-24T11:48:22;100123.84;;;21.40;77.19
66887;BME280;67239;51.680;5.976;2023-07-24T11:50:52;100122.47;;;21.46;75.87
66887;BME280;67239;51.680;5.976;2023-07-24T11:53:29;100112.00;;;21.53;76.65
66887;BME280;67239;51.680;5.976;2023-07-24T11:55:59;100109.06;;;21.56;74.30
66887;BME280;67239;51.680;5.976;2023-07-24T11:58:29;100113.66;;;21.65;72.63
66887;BME280;67239;51.680;5.976;2023-07-24T12:00:56;100119.97;;;22.05;71.69
66887;BME280;67239;51.680;5.976;2023-07-24T12:03:25;100120.44;;;22.40;71.33
66887;BME280;67239;51.680;5.976;2023-07-24T12:05:55;100119.16;;;22.44;69.85
66887;BME280;67239;51.680;5.976;2023-07-24T12:08:31;100115.91;;;22.30;68.54
66887;BME280;67239;51.680;5.976;2023-07-24T12:13:32;100123.06;;;22.10;70.56
66887;BME280;67239;51.680;5.976;2023-07-24T12:15:59;100121.97;;;22.13;68.51
66887;BME280;67239;51.680;5.976;2023-07-24T12:18:26;100116.16;;;22.08;70.75
66887;BME280;67239;51.680;5.976;2023-07-24T12:20:53;100108.25;;;22.16;71.87
66887;BME280;67239;51.680;5.976;2023-07-24T12:23:20;100113.91;;;22.23;69.84
66887;BME280;67239;51.680;5.976;2023-07-24T12:25:49;100110.66;;;22.19;68.56
66887;BME280;67239;51.680;5.976;2023-07-24T12:28:16;100119.84;;;22.16;69.33
66887;BME280;67239;51.680;5.976;2023-07-24T12:30:43;100122.66;;;22.15;66.47
66887;BME280;67239;51.680;5.976;2023-07-24T12:33:10;100125.34;;;22.05;68.36
66887;BME280;67239;51.680;5.976;2023-07-24T12:35:38;100116.13;;;21.98;68.05
66887;BME280;67239;51.680;5.976;2023-07-24T12:38:05;100108.63;;;21.92;68.06
66887;BME280;67239;51.680;5.976;2023-07-24T12:40:32;100124.03;;;21.90;69.13
66887;BME280;67239;51.680;5.976;2023-07-24T12:43:00;100118.13;;;21.96;66.88
66887;BME280;67239;51.680;5.976;2023-07-24T12:45:27;100116.84;;;22.00;66.69
66887;BME280;67239;51.680;5.976;2023-07-24T12:47:54;100115.56;;;21.94;66.40
66887;BME280;67239;51.680;5.976;2023-07-24T12:50:22;100107.09;;;21.89;67.69
66887;BME280;67239;51.680;5.976;2023-07-24T12:52:50;100107.38;;;21.96;68.77
66887;BME280;67239;51.680;5.976;2023-07-24T12:55:18;100101.59;;;22.00;68.59
66887;BME280;67239;51.680;5.976;2023-07-24T12:57:45;100101.75;;;22.18;69.30
66887;BME280;67239;51.680;5.976;2023-07-24T13:00:12;100099.38;;;22.35;68.23